createdAt,value
2017-10-18T00:01:05.965Z,0
2017-10-18T00:02:14.062Z,0
2017-10-18T00:03:22.162Z,0
2017-10-18T00:04:30.245Z,0
2017-10-18T00:05:38.349Z,0
2017-10-18T00:06:46.418Z,0
2017-10-18T00:07:54.506Z,0
2017-10-18T00:09:02.594Z,0
2017-10-18T00:10:10.679Z,0
2017-10-18T00:11:18.766Z,0
2017-10-18T00:12:26.857Z,0
2017-10-18T00:13:34.944Z,0
2017-10-18T00:14:43.060Z,0
2017-10-18T00:15:51.131Z,0
2017-10-18T00:16:59.219Z,0
2017-10-18T00:18:07.302Z,0
2017-10-18T00:19:15.392Z,0
2017-10-18T00:20:23.478Z,0
2017-10-18T00:21:31.568Z,0
2017-10-18T00:22:39.671Z,0
2017-10-18T00:23:47.754Z,0
2017-10-18T00:24:55.841Z,0
2017-10-18T00:26:03.938Z,0
2017-10-18T00:27:12.018Z,0
2017-10-18T00:28:20.132Z,0
2017-10-18T00:29:28.206Z,0
2017-10-18T00:30:36.293Z,0
2017-10-18T00:31:44.382Z,0
2017-10-18T00:32:52.480Z,0
2017-10-18T00:34:00.565Z,0
2017-10-18T00:35:08.655Z,0
2017-10-18T00:36:16.741Z,0
2017-10-18T00:37:24.829Z,0
2017-10-18T00:38:32.917Z,0
2017-10-18T00:39:41.005Z,0
2017-10-18T00:40:49.092Z,0
2017-10-18T00:41:57.185Z,0
2017-10-18T00:43:05.274Z,0
2017-10-18T00:44:13.355Z,0
2017-10-18T00:45:21.442Z,0
2017-10-18T00:46:29.530Z,0
2017-10-18T00:47:37.614Z,0
2017-10-18T00:48:45.703Z,0
2017-10-18T00:49:53.791Z,0
2017-10-18T00:51:01.906Z,0
2017-10-18T00:52:09.972Z,0
2017-10-18T00:53:18.054Z,0
2017-10-18T00:54:26.143Z,0
2017-10-18T00:55:34.234Z,0
2017-10-18T00:56:42.317Z,0
2017-10-18T00:57:50.403Z,0
2017-10-18T00:58:58.615Z,0
2017-10-18T01:00:06.702Z,0
2017-10-18T01:01:14.790Z,0
2017-10-18T01:02:22.876Z,0
2017-10-18T01:03:30.985Z,0
2017-10-18T01:04:39.074Z,0
2017-10-18T01:05:47.164Z,0
2017-10-18T01:06:55.252Z,0
2017-10-18T01:08:03.338Z,0
2017-10-18T01:09:11.426Z,0
2017-10-18T01:10:19.512Z,0
2017-10-18T01:11:27.601Z,0
2017-10-18T01:12:35.688Z,0
2017-10-18T01:13:43.774Z,0
2017-10-18T01:14:51.862Z,0
2017-10-18T01:15:59.953Z,0
2017-10-18T01:17:08.036Z,0
2017-10-18T01:18:16.145Z,0
2017-10-18T01:19:24.212Z,0
2017-10-18T01:20:32.303Z,0
2017-10-18T01:21:40.387Z,0
2017-10-18T01:22:48.473Z,0
2017-10-18T01:23:56.569Z,0
2017-10-18T01:25:04.647Z,0
2017-10-18T01:26:12.736Z,0
2017-10-18T01:27:20.823Z,0
2017-10-18T01:28:28.915Z,0
2017-10-18T01:29:37.000Z,0
2017-10-18T01:30:45.089Z,0
2017-10-18T01:31:53.173Z,0
2017-10-18T01:33:01.261Z,0
2017-10-18T01:34:09.345Z,0
2017-10-18T01:35:17.432Z,0
2017-10-18T01:36:25.522Z,0
2017-10-18T01:37:33.609Z,0
2017-10-18T01:38:41.697Z,0
2017-10-18T01:39:49.783Z,0
2017-10-18T01:40:57.873Z,0
2017-10-18T01:42:05.965Z,0
2017-10-18T01:43:14.045Z,0
2017-10-18T01:44:22.499Z,0
2017-10-18T01:45:30.305Z,0
2017-10-18T01:46:38.307Z,0
2017-10-18T01:47:46.414Z,0
2017-10-18T01:48:54.480Z,0
2017-10-18T01:50:02.570Z,0
2017-10-18T01:51:10.696Z,0
2017-10-18T01:52:18.741Z,0
2017-10-18T01:53:26.829Z,0
2017-10-18T01:54:34.922Z,0
2017-10-18T01:55:43.022Z,0
2017-10-18T01:56:51.101Z,0
2017-10-18T01:57:59.196Z,0
2017-10-18T01:59:07.280Z,0
2017-10-18T02:00:15.375Z,0
2017-10-18T02:01:23.462Z,0
2017-10-18T02:02:31.555Z,0
2017-10-18T02:03:39.638Z,0
2017-10-18T02:04:47.725Z,0
2017-10-18T02:05:55.810Z,0
2017-10-18T02:07:03.897Z,0
2017-10-18T02:08:12.001Z,0
2017-10-18T02:09:20.077Z,0
2017-10-18T02:10:28.184Z,0
2017-10-18T02:11:36.251Z,0
2017-10-18T02:12:44.340Z,0
2017-10-18T02:13:52.426Z,0
2017-10-18T02:15:00.512Z,0
2017-10-18T02:16:08.596Z,0
2017-10-18T02:17:16.692Z,0
2017-10-18T02:18:24.781Z,0
2017-10-18T02:19:32.868Z,0
2017-10-18T02:20:40.965Z,0
2017-10-18T02:21:49.061Z,0
2017-10-18T02:22:57.156Z,0
2017-10-18T02:24:05.225Z,0
2017-10-18T02:25:13.318Z,0
2017-10-18T02:26:21.398Z,0
2017-10-18T02:27:29.487Z,0
2017-10-18T02:28:37.571Z,0
2017-10-18T02:29:45.661Z,0
2017-10-18T02:30:53.747Z,0
2017-10-18T02:32:01.921Z,0
2017-10-18T02:33:09.920Z,0
2017-10-18T02:34:18.025Z,0
2017-10-18T02:35:26.094Z,0
2017-10-18T02:36:34.179Z,0
2017-10-18T02:37:42.266Z,0
2017-10-18T02:38:50.356Z,0
2017-10-18T02:39:58.442Z,0
2017-10-18T02:41:06.526Z,0
2017-10-18T02:42:14.618Z,0
2017-10-18T02:43:22.700Z,0
2017-10-18T02:44:30.789Z,0
2017-10-18T02:45:38.873Z,0
2017-10-18T02:46:46.960Z,0
2017-10-18T02:47:55.137Z,0
2017-10-18T02:49:03.134Z,0
2017-10-18T02:50:11.221Z,0
2017-10-18T02:51:19.308Z,0
2017-10-18T02:52:27.393Z,0
2017-10-18T02:53:35.481Z,0
2017-10-18T02:54:43.586Z,0
2017-10-18T02:55:51.671Z,0
2017-10-18T02:56:59.760Z,0
2017-10-18T02:58:07.845Z,0
2017-10-18T02:59:15.950Z,0
2017-10-18T03:00:24.034Z,0
2017-10-18T03:01:32.106Z,0
2017-10-18T03:02:40.193Z,0
2017-10-18T03:03:48.280Z,0
2017-10-18T03:04:56.366Z,0
2017-10-18T03:06:04.450Z,0
2017-10-18T03:07:12.538Z,0
2017-10-18T03:08:20.624Z,0
2017-10-18T03:09:28.709Z,0
2017-10-18T03:10:36.793Z,0
2017-10-18T03:11:44.881Z,0
2017-10-18T03:12:52.990Z,0
2017-10-18T03:14:01.054Z,0
2017-10-18T03:15:09.141Z,0
2017-10-18T03:16:17.237Z,0
2017-10-18T03:17:25.315Z,0
2017-10-18T03:18:33.398Z,0
2017-10-18T03:19:41.488Z,0
2017-10-18T03:20:49.574Z,0
2017-10-18T03:21:57.662Z,0
2017-10-18T03:23:05.748Z,0
2017-10-18T03:24:13.833Z,0
2017-10-18T03:25:21.922Z,0
2017-10-18T03:26:30.024Z,0
2017-10-18T03:27:38.092Z,0
2017-10-18T03:28:46.177Z,0
2017-10-18T03:29:54.270Z,0
2017-10-18T03:31:02.354Z,0
2017-10-18T03:32:10.437Z,0
2017-10-18T03:33:18.525Z,0
2017-10-18T03:34:26.613Z,0
2017-10-18T03:35:34.704Z,0
2017-10-18T03:36:42.802Z,0
2017-10-18T03:37:50.888Z,0
2017-10-18T03:38:58.994Z,0
2017-10-18T03:40:07.068Z,0
2017-10-18T03:41:15.159Z,0
2017-10-18T03:42:23.249Z,0
2017-10-18T03:43:31.336Z,0
2017-10-18T03:44:39.423Z,0
2017-10-18T03:45:47.510Z,0
2017-10-18T03:46:55.594Z,0
2017-10-18T03:48:03.682Z,0
2017-10-18T03:49:11.767Z,0
2017-10-18T03:50:19.853Z,0
2017-10-18T03:51:27.939Z,0
2017-10-18T03:52:36.031Z,0
2017-10-18T03:53:44.113Z,0
2017-10-18T03:54:52.200Z,0
2017-10-18T03:56:00.286Z,0
2017-10-18T03:57:08.383Z,0
2017-10-18T03:58:16.467Z,0
2017-10-18T03:59:24.553Z,0
2017-10-18T04:00:32.639Z,0
2017-10-18T04:01:40.729Z,0
2017-10-18T04:02:48.816Z,0
2017-10-18T04:03:56.913Z,0
2017-10-18T04:05:04.991Z,0
2017-10-18T04:06:13.074Z,0
2017-10-18T04:07:21.165Z,0
2017-10-18T04:08:29.266Z,0
2017-10-18T04:09:37.333Z,0
2017-10-18T04:10:45.420Z,0
2017-10-18T04:11:53.507Z,0
2017-10-18T04:13:01.594Z,0
2017-10-18T04:14:09.682Z,0
2017-10-18T04:15:17.766Z,0
2017-10-18T04:16:25.854Z,0
2017-10-18T04:17:33.942Z,0
2017-10-18T04:18:42.024Z,0
2017-10-18T04:19:50.111Z,0
2017-10-18T04:20:58.199Z,0
2017-10-18T04:22:06.292Z,0
2017-10-18T04:23:14.373Z,0
2017-10-18T04:24:22.460Z,0
2017-10-18T04:25:30.550Z,0
2017-10-18T04:26:38.634Z,0
2017-10-18T04:27:46.718Z,0
2017-10-18T04:28:54.804Z,0
2017-10-18T04:30:02.893Z,0
2017-10-18T04:31:10.997Z,0
2017-10-18T04:32:19.066Z,0
2017-10-18T04:33:27.154Z,0
2017-10-18T04:34:35.238Z,0
2017-10-18T04:35:43.343Z,0
2017-10-18T04:36:51.423Z,0
2017-10-18T04:37:59.510Z,0
2017-10-18T04:39:07.834Z,0
2017-10-18T04:40:15.678Z,0
2017-10-18T04:41:23.975Z,0
2017-10-18T04:42:31.852Z,0
2017-10-18T04:43:39.965Z,0
2017-10-18T04:44:48.035Z,0
2017-10-18T04:45:56.119Z,0
2017-10-18T04:47:04.213Z,0
2017-10-18T04:48:12.318Z,0
2017-10-18T04:49:20.405Z,0
2017-10-18T04:50:28.494Z,0
2017-10-18T04:51:36.578Z,0
2017-10-18T04:52:44.665Z,0
2017-10-18T04:53:52.752Z,0
2017-10-18T04:55:00.845Z,0
2017-10-18T04:56:08.941Z,0
2017-10-18T04:57:17.021Z,0
2017-10-18T04:58:25.109Z,0
2017-10-18T04:59:33.476Z,0
2017-10-18T05:00:41.276Z,0
2017-10-18T05:01:49.363Z,0
2017-10-18T05:02:57.447Z,0
2017-10-18T05:04:05.532Z,0
2017-10-18T05:05:13.618Z,0
2017-10-18T05:06:21.706Z,0
2017-10-18T05:07:30.029Z,0
2017-10-18T05:08:37.882Z,0
2017-10-18T05:09:45.973Z,0
2017-10-18T05:10:54.054Z,0
2017-10-18T05:12:02.217Z,0
2017-10-18T05:13:10.233Z,0
2017-10-18T05:14:18.326Z,0
2017-10-18T05:15:26.410Z,0
2017-10-18T05:16:34.497Z,0
2017-10-18T05:17:42.582Z,0
2017-10-18T05:18:50.669Z,0
2017-10-18T05:19:58.761Z,0
2017-10-18T05:21:06.841Z,0
2017-10-18T05:22:14.927Z,0
2017-10-18T05:23:23.031Z,0
2017-10-18T05:24:31.117Z,0
2017-10-18T05:25:39.184Z,0
2017-10-18T05:26:47.271Z,0
2017-10-18T05:27:55.356Z,0
2017-10-18T05:29:03.444Z,0
2017-10-18T05:30:11.530Z,0
2017-10-18T05:31:19.615Z,0
2017-10-18T05:32:27.707Z,0
2017-10-18T05:33:35.788Z,0
2017-10-18T05:34:43.874Z,0
2017-10-18T05:35:51.965Z,0
2017-10-18T05:37:00.047Z,0
2017-10-18T05:38:08.132Z,0
2017-10-18T05:39:16.218Z,0
2017-10-18T05:40:24.304Z,0
2017-10-18T05:41:32.392Z,0
2017-10-18T05:42:40.475Z,0
2017-10-18T05:43:48.565Z,0
2017-10-18T05:44:56.648Z,0
2017-10-18T05:46:04.734Z,0
2017-10-18T05:47:12.819Z,0
2017-10-18T05:48:20.918Z,0
2017-10-18T05:49:29.000Z,0
2017-10-18T05:50:37.086Z,0
2017-10-18T05:51:45.172Z,0
2017-10-18T05:52:53.258Z,0
2017-10-18T05:54:01.344Z,0
2017-10-18T05:55:09.472Z,0
2017-10-18T05:56:17.515Z,4
2017-10-18T05:57:25.600Z,4
2017-10-18T05:58:33.688Z,4
2017-10-18T05:59:41.778Z,0
2017-10-18T06:00:49.859Z,0
2017-10-18T06:01:57.972Z,0
2017-10-18T06:03:06.036Z,0
2017-10-18T06:04:14.124Z,4
2017-10-18T06:05:22.207Z,4
2017-10-18T06:06:30.289Z,4
2017-10-18T06:07:38.376Z,4
2017-10-18T06:08:46.461Z,0
2017-10-18T06:09:54.547Z,0
2017-10-18T06:11:02.635Z,4
2017-10-18T06:12:10.721Z,4
2017-10-18T06:13:18.805Z,4
2017-10-18T06:14:26.895Z,4
2017-10-18T06:15:34.980Z,4
2017-10-18T06:16:43.063Z,4
2017-10-18T06:17:51.156Z,8
2017-10-18T06:18:59.234Z,4
2017-10-18T06:20:07.322Z,4
2017-10-18T06:21:15.408Z,8
2017-10-18T06:22:23.506Z,8
2017-10-18T06:23:31.589Z,4
2017-10-18T06:24:39.674Z,8
2017-10-18T06:25:47.761Z,4
2017-10-18T06:26:55.847Z,8
2017-10-18T06:28:03.940Z,12
2017-10-18T06:29:12.042Z,16
2017-10-18T06:30:20.106Z,20
2017-10-18T06:31:28.195Z,24
2017-10-18T06:32:36.277Z,28
2017-10-18T06:33:44.359Z,24
2017-10-18T06:34:52.451Z,20
2017-10-18T06:36:00.536Z,16
2017-10-18T06:37:08.624Z,12
2017-10-18T06:38:16.708Z,12
2017-10-18T06:39:24.794Z,8
2017-10-18T06:40:32.906Z,12
2017-10-18T06:41:40.968Z,12
2017-10-18T06:42:49.219Z,16
2017-10-18T06:43:57.303Z,16
2017-10-18T06:45:05.389Z,20
2017-10-18T06:46:13.481Z,20
2017-10-18T06:47:21.560Z,16
2017-10-18T06:48:29.666Z,16
2017-10-18T06:49:37.752Z,16
2017-10-18T06:50:45.837Z,12
2017-10-18T06:51:53.922Z,12
2017-10-18T06:53:02.009Z,12
2017-10-18T06:54:10.111Z,16
2017-10-18T06:55:18.182Z,16
2017-10-18T06:56:26.271Z,12
2017-10-18T06:57:34.352Z,12
2017-10-18T06:58:42.439Z,20
2017-10-18T06:59:50.532Z,20
2017-10-18T07:00:58.618Z,16
2017-10-18T07:02:06.697Z,16
2017-10-18T07:03:14.780Z,24
2017-10-18T07:04:22.868Z,20
2017-10-18T07:05:30.977Z,20
2017-10-18T07:06:39.042Z,24
2017-10-18T07:07:47.126Z,20
2017-10-18T07:08:55.215Z,20
2017-10-18T07:10:03.302Z,20
2017-10-18T07:11:11.389Z,20
2017-10-18T07:12:19.473Z,20
2017-10-18T07:13:27.561Z,24
2017-10-18T07:14:35.647Z,24
2017-10-18T07:15:43.734Z,24
2017-10-18T07:16:51.817Z,24
2017-10-18T07:17:59.921Z,24
2017-10-18T07:19:07.990Z,24
2017-10-18T07:20:16.075Z,24
2017-10-18T07:21:24.160Z,20
2017-10-18T07:22:32.245Z,20
2017-10-18T07:23:40.334Z,20
2017-10-18T07:24:48.430Z,20
2017-10-18T07:25:56.513Z,20
2017-10-18T07:27:04.598Z,20
2017-10-18T07:28:12.686Z,20
2017-10-18T07:29:20.771Z,24
2017-10-18T07:30:28.856Z,20
2017-10-18T07:31:36.951Z,20
2017-10-18T07:32:45.042Z,20
2017-10-18T07:33:53.132Z,20
2017-10-18T07:35:01.389Z,24
2017-10-18T07:36:09.297Z,20
2017-10-18T07:37:17.383Z,20
2017-10-18T07:38:25.472Z,20
2017-10-18T07:39:33.555Z,20
2017-10-18T07:40:41.655Z,20
2017-10-18T07:41:49.725Z,20
2017-10-18T07:42:57.815Z,20
2017-10-18T07:44:05.902Z,24
2017-10-18T07:45:13.982Z,24
2017-10-18T07:46:22.076Z,20
2017-10-18T07:47:30.160Z,20
2017-10-18T07:48:38.247Z,20
2017-10-18T07:49:46.340Z,20
2017-10-18T07:50:54.426Z,12
2017-10-18T07:52:02.513Z,16
2017-10-18T07:53:10.597Z,20
2017-10-18T07:54:18.683Z,20
2017-10-18T07:55:26.774Z,20
2017-10-18T07:56:34.854Z,20
2017-10-18T07:57:42.942Z,24
2017-10-18T07:58:51.029Z,24
2017-10-18T07:59:59.112Z,20
2017-10-18T08:01:07.195Z,20
2017-10-18T08:02:15.282Z,24
2017-10-18T08:03:23.387Z,24
2017-10-18T08:04:31.454Z,24
2017-10-18T08:05:39.538Z,20
2017-10-18T08:06:47.624Z,24
2017-10-18T08:07:55.711Z,24
2017-10-18T08:09:03.810Z,24
2017-10-18T08:10:11.905Z,28
2017-10-18T08:11:19.983Z,20
2017-10-18T08:12:28.068Z,20
2017-10-18T08:13:36.155Z,24
2017-10-18T08:14:44.254Z,28
2017-10-18T08:15:52.322Z,28
2017-10-18T08:17:00.412Z,28
2017-10-18T08:18:08.496Z,28
2017-10-18T08:19:16.588Z,32
2017-10-18T08:20:24.665Z,32
2017-10-18T08:21:32.753Z,32
2017-10-18T08:22:40.836Z,36
2017-10-18T08:23:48.923Z,32
2017-10-18T08:24:57.345Z,32
2017-10-18T08:26:05.096Z,32
2017-10-18T08:27:13.186Z,36
2017-10-18T08:28:21.266Z,32
2017-10-18T08:29:29.367Z,32
2017-10-18T08:30:37.445Z,36
2017-10-18T08:31:45.520Z,32
2017-10-18T08:32:53.605Z,36
2017-10-18T08:34:01.691Z,28
2017-10-18T08:35:09.776Z,36
2017-10-18T08:36:17.863Z,32
2017-10-18T08:37:25.954Z,32
2017-10-18T08:38:34.035Z,32
2017-10-18T08:39:42.119Z,36
2017-10-18T08:40:50.205Z,36
2017-10-18T08:41:58.292Z,32
2017-10-18T08:43:06.377Z,28
2017-10-18T08:44:14.462Z,28
2017-10-18T08:45:22.547Z,28
2017-10-18T08:46:30.632Z,28
2017-10-18T08:47:38.719Z,28
2017-10-18T08:48:46.806Z,32
2017-10-18T08:49:54.908Z,32
2017-10-18T08:51:02.987Z,32
2017-10-18T08:52:11.091Z,32
2017-10-18T08:53:19.164Z,32
2017-10-18T08:54:27.248Z,36
2017-10-18T08:55:35.336Z,32
2017-10-18T08:56:43.469Z,32
2017-10-18T08:57:51.555Z,32
2017-10-18T08:58:59.642Z,28
2017-10-18T09:00:07.727Z,32
2017-10-18T09:01:15.816Z,40
2017-10-18T09:02:23.899Z,36
2017-10-18T09:03:31.984Z,36
2017-10-18T09:04:40.076Z,36
2017-10-18T09:05:48.155Z,40
2017-10-18T09:06:56.240Z,36
2017-10-18T09:08:04.331Z,40
2017-10-18T09:09:12.413Z,36
2017-10-18T09:10:20.496Z,36
2017-10-18T09:11:28.584Z,36
2017-10-18T09:12:36.669Z,36
2017-10-18T09:13:44.755Z,36
2017-10-18T09:14:52.842Z,40
2017-10-18T09:16:00.954Z,40
2017-10-18T09:17:09.022Z,36
2017-10-18T09:18:17.103Z,40
2017-10-18T09:19:25.184Z,40
2017-10-18T09:20:33.269Z,40
2017-10-18T09:21:41.353Z,40
2017-10-18T09:22:49.440Z,40
2017-10-18T09:23:57.526Z,40
2017-10-18T09:25:05.621Z,44
2017-10-18T09:26:13.699Z,40
2017-10-18T09:27:21.785Z,40
2017-10-18T09:28:29.870Z,44
2017-10-18T09:29:37.958Z,40
2017-10-18T09:30:46.133Z,40
2017-10-18T09:31:54.129Z,40
2017-10-18T09:33:02.213Z,40
2017-10-18T09:34:10.306Z,40
2017-10-18T09:35:18.406Z,40
2017-10-18T09:36:26.475Z,40
2017-10-18T09:37:34.561Z,40
2017-10-18T09:38:42.646Z,40
2017-10-18T09:39:50.732Z,44
2017-10-18T09:40:58.819Z,40
2017-10-18T09:42:06.904Z,40
2017-10-18T09:43:14.999Z,44
2017-10-18T09:44:23.077Z,44
2017-10-18T09:45:31.182Z,40
2017-10-18T09:46:39.267Z,40
2017-10-18T09:47:47.351Z,40
2017-10-18T09:48:55.437Z,40
2017-10-18T09:50:03.521Z,44
2017-10-18T09:51:11.607Z,40
2017-10-18T09:52:19.694Z,40
2017-10-18T09:53:27.787Z,40
2017-10-18T09:54:35.869Z,40
2017-10-18T09:55:43.951Z,40
2017-10-18T09:56:52.035Z,40
2017-10-18T09:58:00.138Z,40
2017-10-18T09:59:08.205Z,40
2017-10-18T10:00:16.293Z,40
2017-10-18T10:01:24.380Z,40
2017-10-18T10:02:32.465Z,40
2017-10-18T10:03:40.550Z,36
2017-10-18T10:04:48.641Z,32
2017-10-18T10:05:56.720Z,36
2017-10-18T10:07:04.809Z,36
2017-10-18T10:08:12.909Z,40
2017-10-18T10:09:20.983Z,40
2017-10-18T10:10:29.066Z,40
2017-10-18T10:11:37.156Z,36
2017-10-18T10:12:45.241Z,36
2017-10-18T10:13:53.322Z,32
2017-10-18T10:15:01.409Z,32
2017-10-18T10:16:09.498Z,36
2017-10-18T10:17:17.606Z,36
2017-10-18T10:18:25.667Z,40
2017-10-18T10:19:33.754Z,40
2017-10-18T10:20:41.840Z,40
2017-10-18T10:21:50.056Z,36
2017-10-18T10:22:58.017Z,32
2017-10-18T10:24:06.098Z,28
2017-10-18T10:25:14.183Z,32
2017-10-18T10:26:22.268Z,40
2017-10-18T10:27:30.377Z,36
2017-10-18T10:28:38.445Z,36
2017-10-18T10:29:46.532Z,36
2017-10-18T10:30:54.623Z,36
2017-10-18T10:32:02.708Z,36
2017-10-18T10:33:10.791Z,36
2017-10-18T10:34:18.876Z,36
2017-10-18T10:35:26.965Z,36
2017-10-18T10:36:35.061Z,36
2017-10-18T10:37:43.135Z,32
2017-10-18T10:38:51.243Z,36
2017-10-18T10:39:59.307Z,32
2017-10-18T10:41:07.395Z,36
2017-10-18T10:42:15.479Z,32
2017-10-18T10:43:23.566Z,36
2017-10-18T10:44:31.651Z,36
2017-10-18T10:45:39.743Z,32
2017-10-18T10:46:47.821Z,32
2017-10-18T10:47:55.908Z,36
2017-10-18T10:49:03.996Z,36
2017-10-18T10:50:12.104Z,32
2017-10-18T10:51:20.181Z,36
2017-10-18T10:52:28.263Z,32
2017-10-18T10:53:36.347Z,32
2017-10-18T10:54:44.434Z,32
2017-10-18T10:55:52.520Z,32
2017-10-18T10:57:00.604Z,36
2017-10-18T10:58:08.693Z,32
2017-10-18T10:59:16.779Z,32
2017-10-18T11:00:24.866Z,32
2017-10-18T11:01:32.969Z,32
2017-10-18T11:02:41.055Z,32
2017-10-18T11:03:49.122Z,32
2017-10-18T11:04:57.211Z,32
2017-10-18T11:06:05.304Z,32
2017-10-18T11:07:13.385Z,28
2017-10-18T11:08:21.469Z,32
2017-10-18T11:09:29.554Z,32
2017-10-18T11:10:37.642Z,28
2017-10-18T11:11:45.725Z,28
2017-10-18T11:12:53.815Z,32
2017-10-18T11:14:01.917Z,28
2017-10-18T11:15:09.981Z,28
2017-10-18T11:16:18.071Z,32
2017-10-18T11:17:26.156Z,32
2017-10-18T11:18:34.240Z,28
2017-10-18T11:19:42.327Z,28
2017-10-18T11:20:50.461Z,32
2017-10-18T11:21:58.595Z,32
2017-10-18T11:23:06.585Z,28
2017-10-18T11:24:14.671Z,28
2017-10-18T11:25:22.766Z,28
2017-10-18T11:26:30.845Z,28
2017-10-18T11:27:39.052Z,28
2017-10-18T11:28:47.024Z,28
2017-10-18T11:29:55.110Z,28
2017-10-18T11:31:03.197Z,28
2017-10-18T11:32:11.286Z,28
2017-10-18T11:33:19.368Z,28
2017-10-18T11:34:27.456Z,28
2017-10-18T11:35:35.544Z,28
2017-10-18T11:36:43.630Z,28
2017-10-18T11:37:51.716Z,28
2017-10-18T11:38:59.800Z,24
2017-10-18T11:40:07.894Z,28
2017-10-18T11:41:15.980Z,28
2017-10-18T11:42:24.064Z,28
2017-10-18T11:43:32.156Z,28
2017-10-18T11:44:40.237Z,28
2017-10-18T11:45:48.323Z,28
2017-10-18T11:46:56.411Z,28
2017-10-18T11:48:04.495Z,28
2017-10-18T11:49:12.582Z,28
2017-10-18T11:50:20.669Z,28
2017-10-18T11:51:28.753Z,24
2017-10-18T11:52:36.839Z,28
2017-10-18T11:53:44.932Z,28
2017-10-18T11:54:53.018Z,28
2017-10-18T11:56:01.106Z,28
2017-10-18T11:57:09.191Z,28
2017-10-18T11:58:17.386Z,24
2017-10-18T11:59:25.475Z,24
2017-10-18T12:00:33.558Z,24
2017-10-18T12:01:41.647Z,28
2017-10-18T12:02:49.736Z,28
2017-10-18T12:03:57.822Z,28
2017-10-18T12:05:05.909Z,28
2017-10-18T12:06:13.999Z,28
2017-10-18T12:07:22.093Z,28
2017-10-18T12:08:30.173Z,28
2017-10-18T12:09:38.266Z,28
2017-10-18T12:10:46.345Z,28
2017-10-18T12:11:54.433Z,28
2017-10-18T12:13:02.516Z,28
2017-10-18T12:14:10.603Z,28
2017-10-18T12:15:18.690Z,28
2017-10-18T12:16:26.778Z,28
2017-10-18T12:17:34.862Z,28
2017-10-18T12:18:42.947Z,24
2017-10-18T12:19:51.033Z,28
2017-10-18T12:20:59.124Z,28
2017-10-18T12:22:07.232Z,32
2017-10-18T12:23:15.292Z,28
2017-10-18T12:24:23.379Z,28
2017-10-18T12:25:31.473Z,28
2017-10-18T12:26:39.549Z,28
2017-10-18T12:27:47.635Z,28
2017-10-18T12:28:55.727Z,28
2017-10-18T12:30:03.818Z,28
2017-10-18T12:31:11.898Z,28
2017-10-18T12:32:19.996Z,28
2017-10-18T12:33:28.076Z,28
2017-10-18T12:34:36.163Z,28
2017-10-18T12:35:44.248Z,32
2017-10-18T12:36:52.354Z,28
2017-10-18T12:38:00.423Z,32
2017-10-18T12:39:08.513Z,32
2017-10-18T12:40:16.604Z,32
2017-10-18T12:41:24.687Z,32
2017-10-18T12:42:32.777Z,28
2017-10-18T12:43:40.861Z,32
2017-10-18T12:44:48.956Z,32
2017-10-18T12:45:57.040Z,32
2017-10-18T12:47:05.132Z,32
2017-10-18T12:48:13.216Z,28
2017-10-18T12:49:21.340Z,28
2017-10-18T12:50:29.381Z,28
2017-10-18T12:51:37.466Z,32
2017-10-18T12:52:45.559Z,28
2017-10-18T12:53:53.640Z,28
2017-10-18T12:55:02.697Z,28
2017-10-18T12:56:09.813Z,28
2017-10-18T12:57:17.899Z,28
2017-10-18T12:58:25.986Z,28
2017-10-18T12:59:34.076Z,28
2017-10-18T13:00:42.159Z,24
2017-10-18T13:01:50.244Z,28
2017-10-18T13:02:58.329Z,24
2017-10-18T13:04:06.417Z,28
2017-10-18T13:05:14.501Z,24
2017-10-18T13:06:22.588Z,24
2017-10-18T13:07:30.679Z,24
2017-10-18T13:08:38.759Z,24
2017-10-18T13:09:46.844Z,28
2017-10-18T13:10:54.935Z,24
2017-10-18T13:12:03.021Z,24
2017-10-18T13:13:11.103Z,28
2017-10-18T13:14:19.187Z,24
2017-10-18T13:15:27.275Z,24
2017-10-18T13:16:35.362Z,28
2017-10-18T13:17:43.563Z,28
2017-10-18T13:18:51.648Z,28
2017-10-18T13:19:59.733Z,28
2017-10-18T13:21:07.825Z,28
2017-10-18T13:22:15.911Z,28
2017-10-18T13:23:23.998Z,32
2017-10-18T13:24:32.085Z,32
2017-10-18T13:25:40.170Z,28
2017-10-18T13:26:48.257Z,32
2017-10-18T13:27:56.342Z,28
2017-10-18T13:29:04.429Z,32
2017-10-18T13:30:12.599Z,32
2017-10-18T13:31:20.600Z,36
2017-10-18T13:32:28.684Z,32
2017-10-18T13:33:36.770Z,32
2017-10-18T13:34:44.868Z,36
2017-10-18T13:35:52.952Z,36
2017-10-18T13:37:01.039Z,32
2017-10-18T13:38:09.129Z,36
2017-10-18T13:39:17.218Z,36
2017-10-18T13:40:25.316Z,36
2017-10-18T13:41:33.426Z,40
2017-10-18T13:42:41.492Z,36
2017-10-18T13:43:49.578Z,36
2017-10-18T13:44:57.664Z,36
2017-10-18T13:46:05.748Z,40
2017-10-18T13:47:13.833Z,36
2017-10-18T13:48:21.938Z,36
2017-10-18T13:49:30.008Z,40
2017-10-18T13:50:38.092Z,36
2017-10-18T13:51:46.183Z,40
2017-10-18T13:52:54.269Z,40
2017-10-18T13:54:02.352Z,40
2017-10-18T13:55:10.442Z,36
2017-10-18T13:56:18.559Z,36
2017-10-18T13:57:26.608Z,40
2017-10-18T13:58:34.701Z,40
2017-10-18T13:59:42.781Z,44
2017-10-18T14:00:50.867Z,44
2017-10-18T14:01:58.952Z,44
2017-10-18T14:03:07.043Z,48
2017-10-18T14:04:15.125Z,48
2017-10-18T14:05:23.209Z,48
2017-10-18T14:06:31.297Z,48
2017-10-18T14:07:39.387Z,52
2017-10-18T14:08:47.468Z,52
2017-10-18T14:09:55.556Z,52
2017-10-18T14:11:03.642Z,56
2017-10-18T14:12:11.726Z,56
2017-10-18T14:13:19.817Z,52
2017-10-18T14:14:27.902Z,56
2017-10-18T14:15:35.989Z,60
2017-10-18T14:16:44.090Z,60
2017-10-18T14:17:52.159Z,64
2017-10-18T14:19:00.250Z,68
2017-10-18T14:20:08.330Z,72
2017-10-18T14:21:16.418Z,80
2017-10-18T14:22:24.561Z,80
2017-10-18T14:23:32.590Z,84
2017-10-18T14:24:40.674Z,88
2017-10-18T14:25:48.758Z,88
2017-10-18T14:26:56.851Z,88
2017-10-18T14:28:04.935Z,88
2017-10-18T14:29:13.028Z,88
2017-10-18T14:30:21.108Z,88
2017-10-18T14:31:29.192Z,88
2017-10-18T14:32:37.281Z,88
2017-10-18T14:33:45.364Z,88
2017-10-18T14:34:53.452Z,84
2017-10-18T14:36:01.536Z,80
2017-10-18T14:37:09.622Z,80
2017-10-18T14:38:17.713Z,80
2017-10-18T14:39:25.866Z,80
2017-10-18T14:40:33.947Z,72
2017-10-18T14:41:42.037Z,76
2017-10-18T14:42:50.137Z,72
2017-10-18T14:43:58.208Z,68
2017-10-18T14:45:06.714Z,68
2017-10-18T14:46:14.381Z,68
2017-10-18T14:47:22.466Z,64
2017-10-18T14:48:30.550Z,64
2017-10-18T14:49:38.638Z,64
2017-10-18T14:50:46.722Z,64
2017-10-18T14:51:54.809Z,60
2017-10-18T14:53:02.895Z,64
2017-10-18T14:54:11.008Z,56
2017-10-18T14:55:19.068Z,56
2017-10-18T14:56:27.157Z,48
2017-10-18T14:57:35.242Z,36
2017-10-18T14:58:43.327Z,24
2017-10-18T14:59:51.417Z,12
2017-10-18T15:00:59.499Z,12
2017-10-18T15:02:07.595Z,12
2017-10-18T15:03:15.681Z,8
2017-10-18T15:04:23.770Z,12
2017-10-18T15:05:31.855Z,8
2017-10-18T15:06:39.944Z,12
2017-10-18T15:07:48.043Z,8
2017-10-18T15:08:56.110Z,12
2017-10-18T15:10:04.198Z,8
2017-10-18T15:11:12.283Z,8
2017-10-18T15:12:20.372Z,12
2017-10-18T15:13:28.457Z,8
2017-10-18T15:14:36.543Z,8
2017-10-18T15:15:44.629Z,8
2017-10-18T15:16:52.714Z,8
2017-10-18T15:18:00.799Z,8
2017-10-18T15:19:08.890Z,8
2017-10-18T15:20:17.002Z,8
2017-10-18T15:21:25.076Z,8
2017-10-18T15:22:33.158Z,4
2017-10-18T15:23:41.246Z,4
2017-10-18T15:24:49.326Z,8
2017-10-18T15:25:57.504Z,8
2017-10-18T15:27:05.502Z,8
2017-10-18T15:28:13.584Z,8
2017-10-18T15:29:21.671Z,4
2017-10-18T15:30:29.756Z,4
2017-10-18T15:31:37.849Z,4
2017-10-18T15:32:45.935Z,4
2017-10-18T15:33:54.017Z,4
2017-10-18T15:35:02.105Z,4
2017-10-18T15:36:10.190Z,4
2017-10-18T15:37:18.274Z,4
2017-10-18T15:38:26.360Z,8
2017-10-18T15:39:34.461Z,8
2017-10-18T15:40:42.551Z,8
2017-10-18T15:41:50.634Z,8
2017-10-18T15:42:58.726Z,8
2017-10-18T15:44:06.812Z,4
2017-10-18T15:45:14.897Z,4
2017-10-18T15:46:22.987Z,4
2017-10-18T15:47:31.089Z,4
2017-10-18T15:48:39.158Z,4
2017-10-18T15:49:47.246Z,4
2017-10-18T15:50:55.419Z,4
2017-10-18T15:52:03.515Z,4
2017-10-18T15:53:11.500Z,4
2017-10-18T15:54:19.804Z,4
2017-10-18T15:55:27.889Z,4
2017-10-18T15:56:35.982Z,4
2017-10-18T15:57:44.060Z,4
2017-10-18T15:58:52.261Z,4
2017-10-18T16:00:01.006Z,4
2017-10-18T16:01:08.419Z,0
2017-10-18T16:02:17.395Z,0
2017-10-18T16:03:24.923Z,4
2017-10-18T16:04:32.996Z,4
2017-10-18T16:05:40.766Z,4
2017-10-18T16:06:49.676Z,4
2017-10-18T16:07:57.067Z,4
2017-10-18T16:09:05.017Z,4
2017-10-18T16:10:13.104Z,4
2017-10-18T16:11:21.195Z,4
2017-10-18T16:12:29.281Z,4
2017-10-18T16:13:37.360Z,0
2017-10-18T16:14:45.447Z,0
2017-10-18T16:15:53.539Z,0
2017-10-18T16:17:01.624Z,0
2017-10-18T16:18:09.708Z,0
2017-10-18T16:19:17.795Z,4
2017-10-18T16:20:25.886Z,4
2017-10-18T16:21:33.967Z,4
2017-10-18T16:22:42.058Z,0
2017-10-18T16:23:50.400Z,0
2017-10-18T16:24:58.246Z,0
2017-10-18T16:26:06.507Z,0
2017-10-18T16:27:14.586Z,0
2017-10-18T16:28:22.673Z,0